createdAt,value
2019-05-14T00:00:54.058Z,0.00
2019-05-14T00:01:54.043Z,0.00
2019-05-14T00:02:53.939Z,0.00
2019-05-14T00:03:53.884Z,0.00
2019-05-14T00:04:53.869Z,0.00
2019-05-14T00:05:53.775Z,0.00
2019-05-14T00:06:53.723Z,0.00
2019-05-14T00:07:53.666Z,0.00
2019-05-14T00:08:53.602Z,0.00
2019-05-14T00:09:53.590Z,0.00
2019-05-14T00:10:53.531Z,0.00
2019-05-14T00:11:53.434Z,0.00
2019-05-14T00:12:53.378Z,0.00
2019-05-14T00:13:53.359Z,0.00
2019-05-14T00:14:53.264Z,0.00
2019-05-14T00:15:53.211Z,0.00
2019-05-14T00:16:53.153Z,0.00
2019-05-14T00:17:53.105Z,0.00
2019-05-14T00:18:53.079Z,0.00
2019-05-14T00:20:06.219Z,0.00
2019-05-14T00:20:52.930Z,0.00
2019-05-14T00:21:52.915Z,0.00
2019-05-14T00:22:52.815Z,0.00
2019-05-14T00:23:52.755Z,0.00
2019-05-14T00:24:52.701Z,0.00
2019-05-14T00:25:52.650Z,0.00
2019-05-14T00:26:52.631Z,0.00
2019-05-14T00:27:52.534Z,0.00
2019-05-14T00:28:52.477Z,0.00
2019-05-14T00:29:52.458Z,0.00
2019-05-14T00:30:52.614Z,0.00
2019-05-14T00:31:52.314Z,0.00
2019-05-14T00:32:52.279Z,0.00
2019-05-14T00:33:52.197Z,0.00
2019-05-14T00:34:52.179Z,0.00
2019-05-14T00:35:52.084Z,0.00
2019-05-14T00:36:52.565Z,0.00
2019-05-14T00:37:52.227Z,0.00
2019-05-14T00:38:51.943Z,0.00
2019-05-14T00:39:52.234Z,0.00
2019-05-14T00:40:51.841Z,0.00
2019-05-14T00:41:51.742Z,0.00
2019-05-14T00:42:53.343Z,0.00
2019-05-14T00:43:51.626Z,0.00
2019-05-14T00:44:57.694Z,0.00
2019-05-14T00:45:51.519Z,0.00
2019-05-14T00:46:51.776Z,0.00
2019-05-14T00:47:52.534Z,0.00
2019-05-14T00:48:51.633Z,0.00
2019-05-14T00:49:51.833Z,0.00
2019-05-14T00:50:51.764Z,0.00
2019-05-14T00:51:51.930Z,0.00
2019-05-14T00:52:51.761Z,0.00
2019-05-14T00:53:51.703Z,0.00
2019-05-14T00:54:52.179Z,0.00
2019-05-14T00:55:51.540Z,0.00
2019-05-14T00:56:52.178Z,0.00
2019-05-14T00:57:52.211Z,0.00
2019-05-14T00:58:52.119Z,0.00
2019-05-14T00:59:52.197Z,0.00
2019-05-14T01:00:52.520Z,0.00
2019-05-14T01:01:51.688Z,0.00
2019-05-14T01:02:51.780Z,0.00
2019-05-14T01:03:52.080Z,0.00
2019-05-14T01:04:51.545Z,0.00
2019-05-14T01:05:52.337Z,0.00
2019-05-14T01:06:51.135Z,0.00
2019-05-14T01:07:51.374Z,0.00
2019-05-14T01:08:51.865Z,0.00
2019-05-14T01:09:52.339Z,0.00
2019-05-14T01:10:51.171Z,0.00
2019-05-14T01:11:51.237Z,0.00
2019-05-14T01:12:51.899Z,0.00
2019-05-14T01:13:52.042Z,0.00
2019-05-14T01:14:52.917Z,0.00
2019-05-14T01:15:51.911Z,0.00
2019-05-14T01:16:51.383Z,0.00
2019-05-14T01:17:51.644Z,0.00
2019-05-14T01:18:51.313Z,0.00
2019-05-14T01:19:51.378Z,0.00
2019-05-14T01:20:51.714Z,0.00
2019-05-14T01:21:51.102Z,0.00
2019-05-14T01:22:51.416Z,0.00
2019-05-14T01:23:51.344Z,0.00
2019-05-14T01:24:49.307Z,0.00
2019-05-14T01:25:51.441Z,0.00
2019-05-14T01:26:49.195Z,0.00
2019-05-14T01:27:51.633Z,0.00
2019-05-14T01:28:51.182Z,0.00
2019-05-14T01:29:51.200Z,0.00
2019-05-14T01:30:49.009Z,0.00
2019-05-14T01:31:48.910Z,0.00
2019-05-14T01:32:50.979Z,0.00
2019-05-14T01:33:48.794Z,0.00
2019-05-14T01:34:48.745Z,0.00
2019-05-14T01:35:48.717Z,0.00
2019-05-14T01:36:48.663Z,0.00
2019-05-14T01:37:48.571Z,0.00
2019-05-14T01:38:48.509Z,0.00
2019-05-14T01:39:48.490Z,0.00
2019-05-14T01:40:48.395Z,0.00
2019-05-14T01:41:48.384Z,0.00
2019-05-14T01:42:48.320Z,0.00
2019-05-14T01:43:48.224Z,0.00
2019-05-14T01:44:48.167Z,0.00
2019-05-14T01:45:48.113Z,0.00
2019-05-14T01:46:48.050Z,0.00
2019-05-14T01:47:48.057Z,0.00
2019-05-14T01:48:47.936Z,0.00
2019-05-14T01:49:47.879Z,0.00
2019-05-14T01:50:47.820Z,0.00
2019-05-14T01:51:47.773Z,0.00
2019-05-14T01:52:47.745Z,0.00
2019-05-14T01:53:47.680Z,0.00
2019-05-14T01:54:47.592Z,0.00
2019-05-14T01:55:47.572Z,0.00
2019-05-14T01:56:47.477Z,0.00
2019-05-14T01:57:47.466Z,0.00
2019-05-14T01:58:47.364Z,0.00
2019-05-14T01:59:47.310Z,0.00
2019-05-14T02:00:47.249Z,0.00
2019-05-14T02:01:47.198Z,0.00
2019-05-14T02:02:47.177Z,0.00
2019-05-14T02:03:47.077Z,0.00
2019-05-14T02:04:47.022Z,0.00
2019-05-14T02:05:46.962Z,0.00
2019-05-14T02:06:46.904Z,0.00
2019-05-14T02:07:46.901Z,0.00
2019-05-14T02:08:46.792Z,0.00
2019-05-14T02:09:46.732Z,0.00
2019-05-14T02:10:46.677Z,0.00
2019-05-14T02:11:46.618Z,0.00
2019-05-14T02:12:46.599Z,0.00
2019-05-14T02:13:48.446Z,0.00
2019-05-14T02:14:46.502Z,0.00
2019-05-14T02:15:46.390Z,0.00
2019-05-14T02:16:46.331Z,0.00
2019-05-14T02:17:46.273Z,0.00
2019-05-14T02:18:46.221Z,0.00
2019-05-14T02:19:46.195Z,0.00
2019-05-14T02:20:46.110Z,0.00
2019-05-14T02:21:46.045Z,0.00
2019-05-14T02:22:45.986Z,0.00
2019-05-14T02:23:45.978Z,0.00
2019-05-14T02:24:45.874Z,0.00
2019-05-14T02:25:45.818Z,0.00
2019-05-14T02:26:45.757Z,0.00
2019-05-14T02:27:45.701Z,0.00
2019-05-14T02:28:45.687Z,0.00
2019-05-14T02:29:45.589Z,0.00
2019-05-14T02:30:55.942Z,0.00
2019-05-14T02:31:45.479Z,0.00
2019-05-14T02:32:45.429Z,0.00
2019-05-14T02:33:45.402Z,0.00
2019-05-14T02:34:45.307Z,0.00
2019-05-14T02:35:45.248Z,0.00
2019-05-14T02:36:45.193Z,0.00
2019-05-14T02:37:45.128Z,0.00
2019-05-14T02:38:45.096Z,0.00
2019-05-14T02:39:45.016Z,0.00
2019-05-14T02:40:45.015Z,0.00
2019-05-14T02:41:44.898Z,0.00
2019-05-14T02:42:44.844Z,0.00
2019-05-14T02:43:44.782Z,0.00
2019-05-14T02:44:44.782Z,0.00
2019-05-14T02:46:00.844Z,0.00
2019-05-14T02:46:44.611Z,0.00
2019-05-14T02:47:44.561Z,0.00
2019-05-14T02:48:44.501Z,0.00
2019-05-14T02:49:44.480Z,0.00
2019-05-14T02:50:44.388Z,0.00
2019-05-14T02:51:44.348Z,0.00
2019-05-14T02:52:44.267Z,0.00
2019-05-14T02:53:44.216Z,0.00
2019-05-14T02:54:44.152Z,0.00
2019-05-14T02:55:44.131Z,0.00
2019-05-14T02:56:44.044Z,0.00
2019-05-14T02:57:43.990Z,0.00
2019-05-14T02:58:43.923Z,0.00
2019-05-14T02:59:43.866Z,0.00
2019-05-14T03:00:43.865Z,0.00
2019-05-14T03:01:43.753Z,0.00
2019-05-14T03:02:43.736Z,0.00
2019-05-14T03:03:43.638Z,0.00
2019-05-14T03:04:43.578Z,4.00
2019-05-14T03:05:43.560Z,0.00
2019-05-14T03:06:43.470Z,0.00
2019-05-14T03:07:43.449Z,4.00
2019-05-14T03:08:43.352Z,4.00
2019-05-14T03:09:43.292Z,4.00
2019-05-14T03:10:43.234Z,4.00
2019-05-14T03:11:43.177Z,4.00
2019-05-14T03:12:43.157Z,8.00
2019-05-14T03:13:43.063Z,4.00
2019-05-14T03:14:43.041Z,4.00
2019-05-14T03:15:42.946Z,8.00
2019-05-14T03:16:42.907Z,8.00
2019-05-14T03:17:42.832Z,8.00
2019-05-14T03:18:42.776Z,12.00
2019-05-14T03:19:42.760Z,12.00
2019-05-14T03:20:42.661Z,16.00
2019-05-14T03:21:42.600Z,16.00
2019-05-14T03:22:58.701Z,16.00
2019-05-14T03:23:42.487Z,24.00
2019-05-14T03:24:42.469Z,24.00
2019-05-14T03:25:42.415Z,28.00
2019-05-14T03:26:42.313Z,32.00
2019-05-14T03:27:42.256Z,32.00
2019-05-14T03:28:42.210Z,40.00
2019-05-14T03:29:42.146Z,48.00
2019-05-14T03:30:43.039Z,48.00
2019-05-14T03:31:43.330Z,56.00
2019-05-14T03:32:43.096Z,60.00
2019-05-14T03:33:43.679Z,68.00
2019-05-14T03:34:43.520Z,72.00
2019-05-14T03:35:49.521Z,76.00
2019-05-14T03:36:43.483Z,88.00
2019-05-14T03:37:41.679Z,96.00
2019-05-14T03:38:41.626Z,100.00
2019-05-14T03:39:41.565Z,112.00
2019-05-14T03:40:41.548Z,120.00
2019-05-14T03:41:41.513Z,128.00
2019-05-14T03:42:41.390Z,136.00
2019-05-14T03:43:41.336Z,148.00
2019-05-14T03:44:41.273Z,160.00
2019-05-14T03:45:41.216Z,168.00
2019-05-14T03:46:51.100Z,180.00
2019-05-14T03:47:41.105Z,192.00
2019-05-14T03:48:41.044Z,204.00
2019-05-14T03:49:41.002Z,216.00
2019-05-14T03:50:40.935Z,228.00
2019-05-14T03:51:40.914Z,240.00
2019-05-14T03:52:40.811Z,256.00
2019-05-14T03:53:55.207Z,268.00
2019-05-14T03:54:41.083Z,280.00
2019-05-14T03:55:40.843Z,296.00
2019-05-14T03:56:40.628Z,308.00
2019-05-14T03:57:40.529Z,324.00
2019-05-14T03:58:40.465Z,336.00
2019-05-14T03:59:40.790Z,348.00
2019-05-14T04:00:40.353Z,364.00
2019-05-14T04:01:40.453Z,380.00
2019-05-14T04:02:40.257Z,396.00
2019-05-14T04:03:40.267Z,412.00
2019-05-14T04:04:40.133Z,428.00
2019-05-14T04:05:40.333Z,440.00
2019-05-14T04:06:40.468Z,456.00
2019-05-14T04:07:39.957Z,468.00
2019-05-14T04:08:39.889Z,484.00
2019-05-14T04:09:40.143Z,500.00
2019-05-14T04:10:49.130Z,512.00
2019-05-14T04:11:39.994Z,532.00
2019-05-14T04:12:40.493Z,544.00
2019-05-14T04:13:40.516Z,560.00
2019-05-14T04:14:39.930Z,576.00
2019-05-14T04:15:39.489Z,592.00
2019-05-14T04:16:40.059Z,604.00
2019-05-14T04:17:42.390Z,620.00
2019-05-14T04:18:40.650Z,632.00
2019-05-14T04:19:39.677Z,648.00
2019-05-14T04:20:39.358Z,664.00
2019-05-14T04:21:39.991Z,680.00
2019-05-14T04:22:39.430Z,692.00
2019-05-14T04:23:39.859Z,708.00
2019-05-14T04:24:41.544Z,720.00
2019-05-14T04:25:39.181Z,736.00
2019-05-14T04:26:56.119Z,748.00
2019-05-14T04:27:40.010Z,764.00
2019-05-14T04:28:39.417Z,776.00
2019-05-14T04:29:39.544Z,792.00
2019-05-14T04:30:40.030Z,804.00
2019-05-14T04:31:39.138Z,816.00
2019-05-14T04:32:39.483Z,832.00
2019-05-14T04:33:39.383Z,844.00
2019-05-14T04:34:39.690Z,852.00
2019-05-14T04:35:40.090Z,864.00
2019-05-14T04:36:39.175Z,876.00
2019-05-14T04:37:39.885Z,892.00
2019-05-14T04:38:41.014Z,904.00
2019-05-14T04:39:39.656Z,916.00
2019-05-14T04:40:40.004Z,928.00
2019-05-14T04:41:39.390Z,940.00
2019-05-14T04:42:40.079Z,952.00
2019-05-14T04:43:40.036Z,964.00
2019-05-14T04:44:40.485Z,972.00
2019-05-14T04:45:39.537Z,988.00
2019-05-14T04:46:39.492Z,1000.00
2019-05-14T04:47:42.069Z,1012.00
2019-05-14T04:48:42.994Z,1024.00
2019-05-14T04:49:39.815Z,1040.00
2019-05-14T04:50:40.495Z,1052.00
2019-05-14T04:51:39.652Z,1068.00
2019-05-14T04:52:40.363Z,1080.00
2019-05-14T04:53:39.390Z,1092.00
2019-05-14T04:54:39.422Z,1104.00
2019-05-14T04:55:40.025Z,1120.00
2019-05-14T04:56:40.021Z,1132.00
2019-05-14T04:57:39.119Z,1148.00
2019-05-14T04:58:40.501Z,1164.00
2019-05-14T04:59:39.729Z,1180.00
2019-05-14T05:00:39.148Z,1192.00
2019-05-14T05:01:39.922Z,1208.00
2019-05-14T05:02:39.790Z,1220.00
2019-05-14T05:03:39.734Z,1232.00
2019-05-14T05:04:40.852Z,1240.00
2019-05-14T05:05:39.356Z,1252.00
2019-05-14T05:06:39.379Z,1268.00
2019-05-14T05:07:36.479Z,1276.00
2019-05-14T05:08:39.221Z,1288.00
2019-05-14T05:09:39.447Z,1300.00
2019-05-14T05:10:36.344Z,1308.00
2019-05-14T05:11:39.084Z,1320.00
2019-05-14T05:12:38.759Z,1336.00
2019-05-14T05:13:36.127Z,1348.00
2019-05-14T05:14:38.591Z,1364.00
2019-05-14T05:15:36.059Z,1376.00
2019-05-14T05:16:38.849Z,1388.00
2019-05-14T05:17:44.166Z,1400.00
2019-05-14T05:18:35.837Z,1416.00
2019-05-14T05:19:35.779Z,1432.00
2019-05-14T05:20:35.767Z,1448.00
2019-05-14T05:21:35.664Z,1460.00
2019-05-14T05:22:35.608Z,1480.00
2019-05-14T05:23:35.547Z,1496.00
2019-05-14T05:24:37.927Z,1516.00
2019-05-14T05:25:35.484Z,1532.00
2019-05-14T05:26:35.376Z,1544.00
2019-05-14T05:27:35.317Z,1556.00
2019-05-14T05:28:35.259Z,1572.00
2019-05-14T05:29:35.204Z,1584.00
2019-05-14T05:30:35.186Z,1592.00
2019-05-14T05:31:35.130Z,1608.00
2019-05-14T05:32:35.026Z,1624.00
2019-05-14T05:33:34.973Z,1644.00
2019-05-14T05:34:34.911Z,1684.00
2019-05-14T05:35:34.854Z,1724.00
2019-05-14T05:36:34.842Z,1696.00
2019-05-14T05:37:34.743Z,1712.00
2019-05-14T05:38:34.691Z,1736.00
2019-05-14T05:39:34.628Z,1752.00
2019-05-14T05:40:34.567Z,1756.00
2019-05-14T05:41:34.557Z,1784.00
2019-05-14T05:42:34.453Z,2968.00
2019-05-14T05:43:34.435Z,2528.00
2019-05-14T05:44:34.338Z,2120.00
2019-05-14T05:45:34.288Z,1836.00
2019-05-14T05:46:34.223Z,1844.00
2019-05-14T05:47:34.187Z,1860.00
2019-05-14T05:48:34.149Z,1876.00
2019-05-14T05:49:34.057Z,1892.00
2019-05-14T05:50:33.992Z,1912.00
2019-05-14T05:51:33.938Z,1944.00
2019-05-14T05:52:33.917Z,1972.00
2019-05-14T05:53:33.820Z,2012.00
2019-05-14T05:54:33.762Z,2096.00
2019-05-14T05:55:33.706Z,2060.00
2019-05-14T05:56:33.647Z,2104.00
2019-05-14T05:57:33.643Z,2088.00
2019-05-14T05:58:33.535Z,2112.00
2019-05-14T05:59:33.478Z,2148.00
2019-05-14T06:00:33.428Z,2244.00
2019-05-14T06:01:42.909Z,2176.00
2019-05-14T06:02:33.351Z,2188.00
2019-05-14T06:03:33.248Z,2204.00
2019-05-14T06:04:33.190Z,2168.00
2019-05-14T06:05:33.142Z,2152.00
2019-05-14T06:06:33.076Z,2172.00
2019-05-14T06:07:33.057Z,2228.00
2019-05-14T06:08:33.001Z,2332.00
2019-05-14T06:09:32.928Z,2528.00
2019-05-14T06:10:32.846Z,2764.00
2019-05-14T06:11:32.792Z,2932.00
2019-05-14T06:12:32.738Z,2928.00
2019-05-14T06:13:32.723Z,2860.00
2019-05-14T06:14:32.623Z,2804.00
2019-05-14T06:15:44.524Z,2712.00
2019-05-14T06:16:32.508Z,2632.00
2019-05-14T06:17:32.451Z,2584.00
2019-05-14T06:18:34.410Z,2552.00
2019-05-14T06:19:32.334Z,2504.00
2019-05-14T06:20:32.314Z,2456.00
2019-05-14T06:21:32.222Z,2428.00
2019-05-14T06:22:32.164Z,2416.00
2019-05-14T06:23:32.108Z,2416.00
2019-05-14T06:24:32.053Z,2412.00
2019-05-14T06:25:32.036Z,2400.00
2019-05-14T06:26:31.940Z,2400.00
2019-05-14T06:27:31.882Z,2400.00
2019-05-14T06:28:33.481Z,2400.00
2019-05-14T06:29:31.767Z,2380.00
2019-05-14T06:30:31.773Z,2360.00
2019-05-14T06:31:31.656Z,2348.00
2019-05-14T06:32:31.601Z,2344.00
2019-05-14T06:33:31.545Z,2344.00
2019-05-14T06:34:31.489Z,2348.00
2019-05-14T06:35:31.462Z,2336.00
2019-05-14T06:36:31.373Z,2336.00
2019-05-14T06:37:31.318Z,2340.00
2019-05-14T06:38:31.260Z,2344.00
2019-05-14T06:39:31.201Z,2348.00
2019-05-14T06:40:31.178Z,2352.00
2019-05-14T06:41:31.134Z,2364.00
2019-05-14T06:42:31.035Z,2360.00
2019-05-14T06:43:31.017Z,2360.00
2019-05-14T06:44:30.918Z,2368.00
2019-05-14T06:45:30.868Z,2376.00
2019-05-14T06:46:30.855Z,2380.00
2019-05-14T06:47:30.754Z,2392.00
2019-05-14T06:48:34.593Z,2408.00
2019-05-14T06:49:30.640Z,2424.00
2019-05-14T06:50:30.585Z,2448.00
2019-05-14T06:51:30.571Z,2472.00
2019-05-14T06:52:30.480Z,2492.00
2019-05-14T06:53:30.422Z,2520.00
2019-05-14T06:54:30.360Z,2544.00
2019-05-14T06:55:30.303Z,2568.00
2019-05-14T06:56:30.284Z,2596.00
2019-05-14T06:57:30.223Z,2612.00
2019-05-14T06:58:30.137Z,2636.00
2019-05-14T06:59:30.080Z,2648.00
2019-05-14T07:00:30.045Z,2664.00
2019-05-14T07:01:29.971Z,2672.00
2019-05-14T07:02:29.950Z,2680.00
2019-05-14T07:03:29.857Z,2684.00
2019-05-14T07:04:29.809Z,2688.00
2019-05-14T07:05:29.747Z,2684.00
2019-05-14T07:06:29.692Z,2688.00
2019-05-14T07:07:30.270Z,2692.00
2019-05-14T07:08:29.581Z,2696.00
2019-05-14T07:09:29.529Z,2688.00
2019-05-14T07:10:29.467Z,2676.00
2019-05-14T07:11:29.409Z,2680.00
2019-05-14T07:12:29.579Z,2672.00
2019-05-14T07:13:29.454Z,2676.00
2019-05-14T07:14:29.245Z,2692.00
2019-05-14T07:15:29.188Z,2724.00
2019-05-14T07:16:29.131Z,2744.00
2019-05-14T07:17:29.120Z,2744.00
2019-05-14T07:18:45.146Z,2768.00
2019-05-14T07:19:29.538Z,2828.00
2019-05-14T07:20:28.910Z,2756.00
2019-05-14T07:21:29.330Z,2748.00
2019-05-14T07:22:28.835Z,2752.00
2019-05-14T07:23:29.086Z,2780.00
2019-05-14T07:24:28.723Z,2824.00
2019-05-14T07:25:28.798Z,2876.00
2019-05-14T07:26:29.505Z,2952.00
2019-05-14T07:27:28.526Z,2984.00
2019-05-14T07:28:29.054Z,2988.00
2019-05-14T07:29:29.345Z,2916.00
2019-05-14T07:30:29.105Z,3000.00
2019-05-14T07:31:29.118Z,3156.00
2019-05-14T07:32:28.836Z,3112.00
2019-05-14T07:33:29.297Z,3132.00
2019-05-14T07:34:28.395Z,3192.00
2019-05-14T07:35:28.824Z,3268.00
2019-05-14T07:36:29.371Z,3272.00
2019-05-14T07:37:28.528Z,3316.00
2019-05-14T07:38:28.397Z,3208.00
2019-05-14T07:39:29.168Z,3196.00
2019-05-14T07:40:29.052Z,3244.00
2019-05-14T07:41:28.432Z,3316.00
2019-05-14T07:42:28.921Z,3324.00
2019-05-14T07:43:28.692Z,3376.00
2019-05-14T07:44:29.648Z,3432.00
2019-05-14T07:45:28.719Z,3540.00
2019-05-14T07:46:28.349Z,3476.00
2019-05-14T07:47:29.106Z,3404.00
2019-05-14T07:48:28.752Z,3156.00
2019-05-14T07:49:29.033Z,3316.00
2019-05-14T07:50:28.995Z,3324.00
2019-05-14T07:51:28.266Z,3384.00
2019-05-14T07:52:28.443Z,3440.00
2019-05-14T07:53:36.043Z,3464.00
2019-05-14T07:54:28.297Z,3512.00
2019-05-14T07:55:28.834Z,3656.00
2019-05-14T07:56:29.145Z,3824.00
2019-05-14T07:57:28.486Z,3896.00
2019-05-14T07:58:28.216Z,3816.00
2019-05-14T07:59:28.731Z,3904.00
2019-05-14T08:00:28.510Z,3852.00
2019-05-14T08:01:28.138Z,3952.00
2019-05-14T08:02:28.903Z,4076.00
2019-05-14T08:03:28.622Z,4276.00
2019-05-14T08:04:28.753Z,4492.00
2019-05-14T08:05:28.700Z,4200.00
2019-05-14T08:06:28.142Z,4572.00
2019-05-14T08:07:28.205Z,4508.00
2019-05-14T08:08:26.288Z,4488.00
2019-05-14T08:09:28.268Z,4576.00
2019-05-14T08:10:26.223Z,4660.00
2019-05-14T08:11:28.050Z,4724.00
2019-05-14T08:12:28.385Z,4800.00
2019-05-14T08:13:28.277Z,4864.00
2019-05-14T08:14:25.967Z,4724.00
2019-05-14T08:15:27.986Z,3700.00
2019-05-14T08:16:25.900Z,4972.00
2019-05-14T08:17:27.991Z,5104.00
2019-05-14T08:18:25.756Z,5336.00
2019-05-14T08:19:27.878Z,5444.00
2019-05-14T08:20:25.648Z,5524.00
2019-05-14T08:21:28.024Z,5684.00
2019-05-14T08:22:25.542Z,5276.00
2019-05-14T08:23:25.489Z,4856.00
2019-05-14T08:24:27.159Z,4700.00
2019-05-14T08:25:25.387Z,4660.00
2019-05-14T08:26:25.339Z,4836.00
2019-05-14T08:27:28.025Z,4788.00
2019-05-14T08:28:25.258Z,4824.00
2019-05-14T08:29:25.182Z,4812.00
2019-05-14T08:30:25.124Z,4980.00
2019-05-14T08:31:25.106Z,5216.00
2019-05-14T08:32:25.019Z,5300.00
2019-05-14T08:33:24.965Z,3832.00
2019-05-14T08:34:24.956Z,5120.00
2019-05-14T08:35:24.864Z,5264.00
2019-05-14T08:36:24.847Z,5372.00
2019-05-14T08:37:24.760Z,5084.00
2019-05-14T08:38:24.712Z,5420.00
2019-05-14T08:39:24.660Z,5516.00
2019-05-14T08:40:24.604Z,5416.00
2019-05-14T08:41:24.597Z,5312.00
2019-05-14T08:42:24.502Z,5316.00
2019-05-14T08:43:24.454Z,5328.00
2019-05-14T08:44:24.402Z,4008.00
2019-05-14T08:45:24.352Z,5392.00
2019-05-14T08:46:24.330Z,5528.00
2019-05-14T08:47:24.251Z,5076.00
2019-05-14T08:48:24.197Z,3984.00
2019-05-14T08:49:37.792Z,4000.00
2019-05-14T08:50:24.130Z,3924.00
2019-05-14T08:51:24.046Z,3728.00
2019-05-14T08:52:24.034Z,3668.00
2019-05-14T08:53:23.946Z,5168.00
2019-05-14T08:54:23.891Z,3864.00
2019-05-14T08:55:23.848Z,3960.00
2019-05-14T08:56:23.820Z,4064.00
2019-05-14T08:57:23.863Z,4128.00
2019-05-14T08:58:23.736Z,4328.00
2019-05-14T08:59:23.648Z,4140.00
2019-05-14T09:00:23.586Z,4388.00
2019-05-14T09:01:23.540Z,3856.00
2019-05-14T09:02:23.521Z,4296.00
2019-05-14T09:03:23.438Z,4140.00
2019-05-14T09:04:23.398Z,3924.00
2019-05-14T09:05:23.334Z,3960.00
2019-05-14T09:06:23.282Z,4692.00
2019-05-14T09:07:23.263Z,4236.00
2019-05-14T09:08:23.180Z,4064.00
2019-05-14T09:09:23.133Z,4116.00
2019-05-14T09:10:23.093Z,3964.00
2019-05-14T09:11:25.695Z,3800.00
2019-05-14T09:12:23.014Z,5756.00
2019-05-14T09:13:22.931Z,3816.00
2019-05-14T09:14:22.871Z,5608.00
2019-05-14T09:15:22.854Z,5888.00
2019-05-14T09:16:38.325Z,6384.00
2019-05-14T09:17:22.722Z,6072.00
2019-05-14T09:18:22.668Z,6284.00
2019-05-14T09:19:22.616Z,5964.00
2019-05-14T09:20:22.617Z,6016.00
2019-05-14T09:21:22.517Z,5884.00
2019-05-14T09:22:22.464Z,5844.00
2019-05-14T09:23:22.413Z,5888.00
2019-05-14T09:24:22.368Z,5572.00
2019-05-14T09:25:22.346Z,5164.00
2019-05-14T09:26:22.292Z,5856.00
2019-05-14T09:27:22.211Z,6112.00
2019-05-14T09:28:22.167Z,6028.00
2019-05-14T09:29:26.027Z,5940.00
2019-05-14T09:30:22.095Z,6064.00
2019-05-14T09:31:22.013Z,6028.00
2019-05-14T09:32:21.974Z,5676.00
2019-05-14T09:33:24.358Z,5564.00
2019-05-14T09:34:21.864Z,5320.00
2019-05-14T09:35:21.870Z,5432.00
2019-05-14T09:36:24.187Z,5820.00
2019-05-14T09:37:21.715Z,5952.00
2019-05-14T09:38:21.681Z,5968.00
2019-05-14T09:39:21.674Z,5808.00
2019-05-14T09:40:21.567Z,5952.00
2019-05-14T09:41:21.523Z,5176.00
2019-05-14T09:42:21.483Z,6080.00
2019-05-14T09:43:21.429Z,5916.00
2019-05-14T09:44:21.413Z,5772.00
2019-05-14T09:45:21.328Z,5652.00
2019-05-14T09:46:21.288Z,5636.00
2019-05-14T09:47:21.269Z,5696.00
2019-05-14T09:48:21.184Z,5816.00
2019-05-14T09:49:21.137Z,5856.00
2019-05-14T09:50:23.333Z,6004.00
2019-05-14T09:51:21.045Z,6228.00
2019-05-14T09:52:21.001Z,6420.00
2019-05-14T09:53:20.953Z,4964.00
2019-05-14T09:54:20.903Z,4548.00
2019-05-14T09:55:20.920Z,4420.00
2019-05-14T09:56:20.816Z,4632.00
2019-05-14T09:57:20.791Z,5916.00
2019-05-14T09:58:20.718Z,6048.00
2019-05-14T09:59:20.668Z,4144.00
2019-05-14T10:00:20.620Z,4248.00
2019-05-14T10:01:20.624Z,4420.00
2019-05-14T10:02:20.522Z,4816.00
2019-05-14T10:03:20.480Z,4424.00
2019-05-14T10:04:20.431Z,4368.00
2019-05-14T10:05:20.382Z,4360.00
2019-05-14T10:06:20.966Z,6488.00
2019-05-14T10:07:20.287Z,6200.00
2019-05-14T10:08:20.275Z,6312.00
2019-05-14T10:09:20.230Z,6460.00
2019-05-14T10:10:20.155Z,6588.00
2019-05-14T10:11:20.135Z,6492.00
2019-05-14T10:12:20.053Z,6372.00
2019-05-14T10:13:20.003Z,6172.00
2019-05-14T10:14:19.997Z,6248.00
2019-05-14T10:15:19.910Z,5344.00
2019-05-14T10:16:19.865Z,3644.00
2019-05-14T10:17:19.826Z,3320.00
2019-05-14T10:18:19.785Z,3408.00
2019-05-14T10:19:19.765Z,3416.00
2019-05-14T10:20:36.530Z,5604.00
2019-05-14T10:21:19.636Z,4576.00
2019-05-14T10:22:19.976Z,4064.00
2019-05-14T10:23:19.539Z,6080.00
2019-05-14T10:24:19.521Z,5460.00
2019-05-14T10:25:19.480Z,5648.00
2019-05-14T10:26:19.395Z,5644.00
2019-05-14T10:27:19.353Z,5440.00
2019-05-14T10:28:19.377Z,5388.00
2019-05-14T10:29:19.315Z,5396.00
2019-05-14T10:30:19.209Z,5436.00
2019-05-14T10:31:19.166Z,5040.00
2019-05-14T10:32:19.118Z,5508.00
2019-05-14T10:33:19.074Z,5520.00
2019-05-14T10:34:19.382Z,5448.00
2019-05-14T10:35:19.302Z,5416.00
2019-05-14T10:36:19.457Z,5432.00
2019-05-14T10:37:19.310Z,5408.00
2019-05-14T10:38:19.160Z,5512.00
2019-05-14T10:39:19.300Z,5600.00
2019-05-14T10:40:18.752Z,5568.00
2019-05-14T10:41:18.809Z,5676.00
2019-05-14T10:42:20.165Z,5876.00
2019-05-14T10:43:19.434Z,4892.00
2019-05-14T10:44:18.908Z,3528.00
2019-05-14T10:45:18.782Z,3456.00
2019-05-14T10:46:19.293Z,3700.00
2019-05-14T10:47:18.908Z,3492.00
2019-05-14T10:48:18.634Z,3336.00
2019-05-14T10:49:23.522Z,3272.00
2019-05-14T10:50:18.380Z,3260.00
2019-05-14T10:51:18.311Z,5592.00
2019-05-14T10:52:19.686Z,3780.00
2019-05-14T10:53:20.293Z,3692.00
2019-05-14T10:54:24.950Z,3876.00
2019-05-14T10:55:18.589Z,3600.00
2019-05-14T10:56:19.357Z,3688.00
2019-05-14T10:57:18.388Z,3744.00
2019-05-14T10:58:19.507Z,3664.00
2019-05-14T10:59:18.437Z,3560.00
2019-05-14T11:00:18.603Z,3576.00
2019-05-14T11:01:22.367Z,3588.00
2019-05-14T11:02:18.560Z,3516.00
2019-05-14T11:03:18.599Z,3364.00
2019-05-14T11:04:18.987Z,3532.00
2019-05-14T11:05:18.749Z,3792.00
2019-05-14T11:06:18.711Z,5708.00
2019-05-14T11:07:18.580Z,5616.00
2019-05-14T11:08:18.959Z,3112.00
2019-05-14T11:09:18.121Z,5308.00
2019-05-14T11:10:19.517Z,2920.00
2019-05-14T11:11:18.498Z,4924.00
2019-05-14T11:12:19.203Z,3740.00
2019-05-14T11:13:18.955Z,5028.00
2019-05-14T11:14:19.224Z,5016.00
2019-05-14T11:15:19.141Z,5144.00
2019-05-14T11:16:19.109Z,5308.00
2019-05-14T11:17:19.411Z,5508.00
2019-05-14T11:18:19.529Z,5748.00
2019-05-14T11:19:18.801Z,4540.00
2019-05-14T11:20:19.217Z,3512.00
2019-05-14T11:21:24.798Z,3240.00
2019-05-14T11:22:18.403Z,3868.00
2019-05-14T11:23:18.487Z,3440.00
2019-05-14T11:24:18.907Z,3356.00
2019-05-14T11:25:16.675Z,3276.00
2019-05-14T11:26:18.421Z,3504.00
2019-05-14T11:27:18.685Z,3764.00
2019-05-14T11:28:18.936Z,3884.00
2019-05-14T11:29:18.594Z,4456.00
2019-05-14T11:30:19.029Z,3952.00
2019-05-14T11:31:19.131Z,3556.00
2019-05-14T11:32:18.408Z,3236.00
2019-05-14T11:33:18.563Z,3596.00
2019-05-14T11:34:19.038Z,3128.00
2019-05-14T11:35:18.963Z,3168.00
2019-05-14T11:36:18.582Z,5152.00
2019-05-14T11:37:18.548Z,3552.00
2019-05-14T11:38:28.528Z,4468.00
2019-05-14T11:39:18.017Z,5188.00
2019-05-14T11:40:18.730Z,5240.00
2019-05-14T11:41:18.438Z,5340.00
2019-05-14T11:42:16.346Z,5488.00
2019-05-14T11:43:15.867Z,5532.00
2019-05-14T11:44:15.794Z,5472.00
2019-05-14T11:45:15.746Z,5452.00
2019-05-14T11:46:15.709Z,5588.00
2019-05-14T11:47:18.040Z,4212.00
2019-05-14T11:48:15.647Z,3952.00
2019-05-14T11:49:15.568Z,3680.00
2019-05-14T11:50:15.518Z,3472.00
2019-05-14T11:51:15.472Z,3428.00
2019-05-14T11:52:17.943Z,3364.00
2019-05-14T11:53:15.412Z,3372.00
2019-05-14T11:54:15.376Z,3312.00
2019-05-14T11:55:15.289Z,3300.00
2019-05-14T11:56:15.242Z,3284.00
2019-05-14T11:57:15.196Z,3172.00
2019-05-14T11:58:15.155Z,3076.00
2019-05-14T11:59:15.135Z,3060.00
2019-05-14T12:00:15.101Z,3004.00
2019-05-14T12:01:15.012Z,2900.00
2019-05-14T12:02:14.963Z,2940.00
2019-05-14T12:03:14.918Z,2872.00
2019-05-14T12:04:14.875Z,2764.00
2019-05-14T12:05:14.860Z,2684.00
2019-05-14T12:06:14.819Z,2592.00
2019-05-14T12:07:14.761Z,2584.00
2019-05-14T12:08:14.687Z,2608.00
2019-05-14T12:09:14.636Z,2788.00
2019-05-14T12:10:14.628Z,3940.00
2019-05-14T12:11:14.544Z,3304.00
2019-05-14T12:12:14.498Z,3236.00
2019-05-14T12:13:14.452Z,3288.00
2019-05-14T12:14:14.402Z,3436.00
2019-05-14T12:15:14.387Z,3428.00
2019-05-14T12:16:14.309Z,3132.00
2019-05-14T12:17:14.731Z,3148.00
2019-05-14T12:18:14.246Z,3352.00
2019-05-14T12:19:14.166Z,5248.00
2019-05-14T12:20:14.119Z,5584.00
2019-05-14T12:21:14.116Z,5604.00
2019-05-14T12:22:14.256Z,5628.00
2019-05-14T12:23:13.986Z,5532.00
2019-05-14T12:24:14.053Z,5436.00
2019-05-14T12:25:13.882Z,5408.00
2019-05-14T12:26:13.876Z,5472.00
2019-05-14T12:27:13.794Z,5672.00